createdAt,value
2022-11-15T00:04:54.584Z,24.95
2022-11-15T00:10:15.224Z,26.10
2022-11-15T00:20:57.044Z,24.42
2022-11-15T00:26:17.566Z,24.90
2022-11-15T00:31:37.919Z,22.75
2022-11-15T00:36:58.243Z,25.20
2022-11-15T00:42:18.457Z,25.98
2022-11-15T00:47:38.848Z,25.95
2022-11-15T00:52:59.265Z,25.17
2022-11-15T00:58:19.476Z,23.35
2022-11-15T01:09:00.754Z,19.43
2022-11-15T01:14:25.231Z,18.55
2022-11-15T01:19:46.005Z,17.67
2022-11-15T01:30:26.592Z,15.93
2022-11-15T01:35:46.962Z,15.45
2022-11-15T01:41:07.837Z,15.43
2022-11-15T01:46:38.875Z,16.55
2022-11-15T01:57:20.636Z,12.65
2022-11-15T02:02:41.449Z,13.50
2022-11-15T02:08:02.374Z,15.05
2022-11-15T02:13:22.839Z,14.43
2022-11-15T02:18:49.624Z,14.55
2022-11-15T02:24:37.279Z,14.20
2022-11-15T02:30:22.299Z,14.10
2022-11-15T02:35:48.785Z,14.50
2022-11-15T02:41:18.181Z,15.20
2022-11-15T02:47:09.122Z,16.02
2022-11-15T02:52:29.132Z,15.88
2022-11-15T02:58:16.821Z,15.48
2022-11-15T03:04:03.759Z,16.15
2022-11-15T03:09:51.577Z,17.00
2022-11-15T03:15:39.317Z,17.73
2022-11-15T03:21:04.334Z,18.60
2022-11-15T03:26:26.530Z,18.83
2022-11-15T03:31:51.904Z,19.13
2022-11-15T03:37:15.213Z,18.98
2022-11-15T03:42:52.863Z,17.85
2022-11-15T03:48:23.940Z,16.77
2022-11-15T03:53:44.302Z,17.42
2022-11-15T03:59:04.542Z,17.50
2022-11-15T04:10:03.505Z,17.92
2022-11-15T04:15:25.835Z,18.80
2022-11-15T04:21:04.434Z,16.33
2022-11-15T04:26:25.002Z,17.48
2022-11-15T04:31:45.389Z,15.55
2022-11-15T04:37:14.644Z,15.30
2022-11-15T04:42:35.164Z,14.57
2022-11-15T04:47:55.571Z,14.88
2022-11-15T04:53:15.828Z,13.50
2022-11-15T04:58:36.391Z,13.50
2022-11-15T05:04:14.991Z,13.18
2022-11-15T05:09:35.193Z,13.25
2022-11-15T05:14:55.521Z,13.73
2022-11-15T05:20:15.933Z,14.30
2022-11-15T05:31:09.244Z,13.53
2022-11-15T05:36:38.900Z,13.35
2022-11-15T05:42:07.257Z,12.95
2022-11-15T05:47:30.504Z,12.15
2022-11-15T05:52:51.857Z,13.40
2022-11-15T05:58:12.356Z,12.73
2022-11-15T06:03:33.228Z,13.27
2022-11-15T06:08:54.004Z,12.73
2022-11-15T06:14:14.031Z,12.73
2022-11-15T06:19:34.432Z,10.55
2022-11-15T06:24:54.700Z,10.65
2022-11-15T06:30:15.393Z,10.63
2022-11-15T06:35:36.712Z,10.18
2022-11-15T06:41:02.659Z,9.20
2022-11-15T06:46:23.178Z,11.05
2022-11-15T06:51:43.495Z,13.63
2022-11-15T06:57:05.593Z,10.85
2022-11-15T07:02:25.663Z,12.32
2022-11-15T07:07:53.283Z,12.02
2022-11-15T07:13:13.509Z,13.70
2022-11-15T07:18:38.636Z,14.52
2022-11-15T07:23:58.600Z,14.25
2022-11-15T07:34:39.289Z,14.05
2022-11-15T07:39:59.733Z,14.50
2022-11-15T07:45:26.799Z,14.65
2022-11-15T07:50:47.132Z,14.73
2022-11-15T08:01:28.341Z,13.43
2022-11-15T08:12:09.234Z,13.68
2022-11-15T08:17:33.105Z,13.27
2022-11-15T08:22:53.754Z,13.70
2022-11-15T08:28:14.429Z,13.10
2022-11-15T08:38:56.117Z,12.03
2022-11-15T08:44:16.547Z,13.00
2022-11-15T08:49:36.791Z,12.52
2022-11-15T08:54:57.112Z,12.60
2022-11-15T09:00:18.017Z,12.15
2022-11-15T09:05:38.986Z,13.02
2022-11-15T09:10:59.269Z,13.10
2022-11-15T09:16:19.711Z,11.00
2022-11-15T09:21:40.033Z,10.43
2022-11-15T09:27:00.466Z,12.00
2022-11-15T09:32:20.749Z,10.75
2022-11-15T09:37:41.356Z,11.30
2022-11-15T09:43:35.520Z,11.32
2022-11-15T09:48:58.253Z,12.18
2022-11-15T09:54:46.092Z,12.00
2022-11-15T10:05:26.486Z,12.52
2022-11-15T10:10:37.365Z,12.65
2022-11-15T10:15:39.299Z,12.98
2022-11-15T10:20:47.841Z,14.75
2022-11-15T10:25:54.233Z,18.20
2022-11-15T10:30:58.489Z,17.42
2022-11-15T10:36:16.258Z,17.85
2022-11-15T10:41:32.883Z,16.25
2022-11-15T10:46:48.606Z,17.48
2022-11-15T10:51:55.168Z,16.05
2022-11-15T10:57:00.715Z,16.27
2022-11-15T11:02:02.642Z,16.55
2022-11-15T11:07:22.536Z,16.30
2022-11-15T11:12:33.472Z,15.77
2022-11-15T11:17:59.559Z,17.02
2022-11-15T11:23:16.502Z,16.98
2022-11-15T11:28:40.435Z,17.00
2022-11-15T11:34:19.283Z,16.55
2022-11-15T11:39:45.395Z,15.55
2022-11-15T11:45:14.970Z,15.48
2022-11-15T11:50:20.922Z,14.88
2022-11-15T11:55:54.059Z,14.90
2022-11-15T12:01:01.206Z,15.57
2022-11-15T12:06:28.583Z,15.90
2022-11-15T12:11:38.227Z,15.68
2022-11-15T12:16:42.792Z,15.10
2022-11-15T12:22:11.620Z,15.50
2022-11-15T12:27:47.494Z,15.70
2022-11-15T12:33:01.045Z,15.00
2022-11-15T12:38:03.270Z,14.32
2022-11-15T12:43:14.536Z,13.82
2022-11-15T12:48:19.784Z,12.63
2022-11-15T12:53:25.011Z,12.70
2022-11-15T12:58:50.988Z,13.32
2022-11-15T13:04:22.925Z,12.05
2022-11-15T13:09:36.806Z,13.63
2022-11-15T13:14:40.519Z,12.63
2022-11-15T13:19:42.474Z,12.93
2022-11-15T13:24:44.559Z,12.30
2022-11-15T13:29:46.439Z,13.45
2022-11-15T13:34:53.684Z,12.50
2022-11-15T13:39:55.555Z,13.10
2022-11-15T13:45:02.970Z,13.10
2022-11-15T13:50:12.068Z,12.63
2022-11-15T13:55:19.933Z,12.82
2022-11-15T14:00:34.551Z,11.82
2022-11-15T14:05:36.683Z,12.80
2022-11-15T14:10:39.469Z,13.32
2022-11-15T14:15:41.249Z,12.07
2022-11-15T14:20:43.959Z,11.95
2022-11-15T14:25:58.079Z,13.82
2022-11-15T14:31:01.287Z,13.40
2022-11-15T14:36:05.113Z,13.93
2022-11-15T14:41:11.545Z,14.82
2022-11-15T14:46:13.376Z,14.07
2022-11-15T14:51:17.956Z,13.20
2022-11-15T14:56:19.823Z,15.95
2022-11-15T15:01:25.453Z,15.43
2022-11-15T15:06:27.999Z,14.13
2022-11-15T15:11:32.161Z,13.85
2022-11-15T15:16:34.030Z,13.15
2022-11-15T15:21:37.653Z,13.07
2022-11-15T15:26:40.187Z,12.07
2022-11-15T15:31:42.210Z,13.32
2022-11-15T15:36:44.067Z,13.82
2022-11-15T15:41:46.241Z,16.42
2022-11-15T15:46:48.126Z,13.70
2022-11-15T15:51:50.079Z,13.23
2022-11-15T15:56:56.007Z,14.80
2022-11-15T16:01:58.434Z,12.20
2022-11-15T16:07:01.957Z,11.80
2022-11-15T16:12:03.932Z,12.23
2022-11-15T16:17:06.305Z,15.65
2022-11-15T16:22:08.133Z,14.90
2022-11-15T16:27:18.085Z,11.35
2022-11-15T16:32:20.005Z,11.48
2022-11-15T16:37:24.294Z,19.55
2022-11-15T16:42:26.256Z,15.00
2022-11-15T16:47:28.211Z,13.88
2022-11-15T16:52:30.007Z,13.10
2022-11-15T16:57:31.821Z,14.55
2022-11-15T17:02:34.037Z,13.88
2022-11-15T17:07:36.416Z,11.82
2022-11-15T17:12:38.386Z,13.65
2022-11-15T17:17:41.413Z,13.82
2022-11-15T17:22:43.248Z,12.45
2022-11-15T17:27:45.156Z,14.60
2022-11-15T17:32:49.900Z,12.95
2022-11-15T17:37:52.848Z,12.07
2022-11-15T17:42:55.544Z,25.15
2022-11-15T17:47:57.388Z,31.48
2022-11-15T17:53:00.127Z,18.30
2022-11-15T17:58:01.934Z,27.25
2022-11-15T18:03:05.034Z,21.08
2022-11-15T18:08:10.203Z,14.18
2022-11-15T18:13:14.649Z,15.80
2022-11-15T18:18:16.530Z,14.63
2022-11-15T18:23:18.459Z,15.50
2022-11-15T18:28:20.520Z,13.98
2022-11-15T18:33:22.408Z,15.85
2022-11-15T18:38:24.293Z,13.85
2022-11-15T18:43:26.389Z,16.50
2022-11-15T18:48:31.197Z,14.07
2022-11-15T18:53:34.449Z,15.90
2022-11-15T18:58:40.117Z,16.25
2022-11-15T19:03:44.426Z,24.17
2022-11-15T19:08:48.854Z,20.42
2022-11-15T19:13:59.689Z,16.60
2022-11-15T19:19:04.543Z,13.30
2022-11-15T19:24:06.880Z,12.80
2022-11-15T19:29:13.872Z,12.85
2022-11-15T19:34:16.681Z,14.38
2022-11-15T19:39:18.701Z,13.95
2022-11-15T19:44:22.114Z,13.10
2022-11-15T19:49:23.989Z,14.30
2022-11-15T19:54:25.790Z,12.73
2022-11-15T19:59:27.680Z,13.68
2022-11-15T20:04:29.552Z,15.82
2022-11-15T20:09:31.377Z,14.73
2022-11-15T20:14:33.247Z,16.38
2022-11-15T20:19:35.162Z,14.00
2022-11-15T20:24:37.041Z,11.30
2022-11-15T20:29:43.651Z,11.38
2022-11-15T20:34:50.176Z,12.00
2022-11-15T20:39:55.669Z,13.05
2022-11-15T20:44:57.468Z,11.15
2022-11-15T20:50:14.954Z,12.45
2022-11-15T20:55:21.296Z,11.02
2022-11-15T21:00:25.827Z,11.52
2022-11-15T21:05:28.709Z,13.15
2022-11-15T21:10:51.357Z,12.93
2022-11-15T21:15:57.782Z,12.25
2022-11-15T21:21:04.497Z,11.55
2022-11-15T21:26:06.375Z,10.45
2022-11-15T21:31:09.198Z,11.05
2022-11-15T21:36:10.981Z,10.80
2022-11-15T21:41:12.755Z,10.35
2022-11-15T21:46:14.553Z,10.93
2022-11-15T21:51:16.371Z,11.07
2022-11-15T21:56:18.379Z,10.45
2022-11-15T22:01:56.377Z,9.75
2022-11-15T22:06:58.815Z,9.30
2022-11-15T22:12:00.767Z,10.57
2022-11-15T22:17:02.636Z,8.45
2022-11-15T22:22:04.825Z,8.77
2022-11-15T22:27:06.883Z,8.70
2022-11-15T22:32:08.760Z,7.90
2022-11-15T22:37:20.571Z,7.75
2022-11-15T22:42:24.114Z,7.50
2022-11-15T22:47:26.440Z,8.43
2022-11-15T22:52:28.325Z,7.65
2022-11-15T22:57:30.266Z,8.15
2022-11-15T23:02:32.140Z,7.75
2022-11-15T23:07:34.621Z,7.55
2022-11-15T23:12:55.272Z,7.68
2022-11-15T23:17:57.142Z,7.10
2022-11-15T23:22:59.389Z,6.13
2022-11-15T23:28:05.300Z,6.60
2022-11-15T23:33:25.872Z,6.03
2022-11-15T23:38:27.803Z,6.68
2022-11-15T23:43:30.022Z,5.72
2022-11-15T23:48:32.307Z,6.30
2022-11-15T23:53:34.542Z,6.68
2022-11-15T23:58:36.715Z,6.40
